Time;durP1;ratioP1;P1;durP2;ratioP2;P2;SDS_P1;SDS_P2;PMS_P1;PMS_P2;Temp;Humidity;BMP_temperature;BMP_pressure;BME280_temperature;BME280_humidity;BME280_pressure;Samples;Min_cycle;Max_cycle;Signal;HPM_P1;HPM_P2
2023/08/26 00:00:33;;;;;;;12.50;11.20;;;16.60;99.90;;;;;;5052527;28;20041;-83
2023/08/26 00:02:59;;;;;;;17.45;13.43;;;16.60;99.90;;;;;;5052049;28;20033;-81
2023/08/26 00:05:25;;;;;;;14.98;12.70;;;16.60;99.90;;;;;;5039122;28;20045;-84
2023/08/26 00:07:51;;;;;;;15.65;11.40;;;16.60;99.90;;;;;;5026848;28;20049;-81
2023/08/26 00:10:16;;;;;;;12.73;11.48;;;16.60;99.90;;;;;;5053576;28;20041;-81
2023/08/26 00:12:42;;;;;;;12.82;11.30;;;16.60;99.90;;;;;;5045483;28;20090;-81
2023/08/26 00:15:08;;;;;;;13.18;10.52;;;16.50;99.90;;;;;;5033111;28;20500;-83
2023/08/26 00:17:34;;;;;;;11.50;10.30;;;16.60;99.90;;;;;;5042537;28;20128;-82
2023/08/26 00:20:00;;;;;;;13.25;10.05;;;16.50;99.90;;;;;;5044484;28;20045;-83
2023/08/26 00:22:26;;;;;;;11.40;10.35;;;16.70;99.90;;;;;;5044371;28;20481;-82
2023/08/26 00:24:51;;;;;;;15.02;10.32;;;16.40;99.90;;;;;;5045169;28;20099;-81
2023/08/26 00:27:17;;;;;;;12.60;9.68;;;16.50;99.90;;;;;;5050006;28;20041;-83
2023/08/26 00:29:43;;;;;;;13.75;10.75;;;16.40;99.90;;;;;;5044552;28;20090;-80
2023/08/26 00:32:08;;;;;;;12.45;10.07;;;16.40;99.90;;;;;;5044569;28;20486;-81
2023/08/26 00:34:34;;;;;;;10.40;9.23;;;16.30;99.90;;;;;;5035704;28;20045;-81
2023/08/26 00:37:00;;;;;;;10.63;9.02;;;16.40;99.90;;;;;;5033931;28;20044;-82
2023/08/26 00:39:26;;;;;;;9.55;8.65;;;16.30;99.90;;;;;;5048359;28;20548;-81
2023/08/26 00:41:51;;;;;;;13.07;8.77;;;16.30;99.90;;;;;;5047230;28;20041;-80
2023/08/26 00:44:17;;;;;;;10.77;8.38;;;16.30;99.90;;;;;;5051416;28;20500;-81
2023/08/26 00:46:43;;;;;;;9.38;8.32;;;16.20;99.90;;;;;;5035394;28;20044;-83
2023/08/26 00:49:09;;;;;;;9.73;8.70;;;16.20;99.90;;;;;;5036237;28;20041;-82
2023/08/26 00:51:36;;;;;;;10.48;7.97;;;16.20;99.90;;;;;;5052624;28;20037;-81
2023/08/26 00:54:04;;;;;;;8.10;7.30;;;16.20;99.90;;;;;;5053878;28;20037;-81
2023/08/26 00:56:30;;;;;;;9.32;7.60;;;16.10;99.90;;;;;;5058806;28;20040;-81
2023/08/26 00:58:56;;;;;;;10.70;8.85;;;16.10;99.90;;;;;;5002604;28;20075;-81
2023/08/26 01:01:23;;;;;;;7.82;7.13;;;16.10;99.90;;;;;;5038419;28;20048;-81
2023/08/26 01:03:49;;;;;;;8.90;7.75;;;16.10;99.90;;;;;;5048807;28;20409;-83
2023/08/26 01:06:14;;;;;;;8.48;7.47;;;16.10;99.90;;;;;;5029823;28;20084;-83
2023/08/26 01:08:40;;;;;;;10.93;7.45;;;16.10;99.90;;;;;;5040689;28;20064;-82
2023/08/26 01:11:34;;;;;;;8.45;7.20;;;16.10;99.90;;;;;;5030965;28;20044;-81
2023/08/26 01:14:02;;;;;;;8.27;7.43;;;16.10;99.90;;;;;;5042711;28;20076;-80
2023/08/26 01:16:30;;;;;;;9.20;7.57;;;16.00;99.90;;;;;;5051778;28;20132;-81
2023/08/26 01:18:56;;;;;;;18.92;8.35;;;16.70;99.90;;;;;;5038454;28;20045;-80
2023/08/26 01:21:30;;;;;;;10.95;8.63;;;16.00;99.90;;;;;;5033504;28;20091;-81
2023/08/26 01:23:56;;;;;;;12.43;8.93;;;16.20;99.90;;;;;;5043665;28;20036;-82
2023/08/26 01:26:22;;;;;;;11.75;9.73;;;15.90;99.90;;;;;;5051004;28;20044;-82
2023/08/26 01:28:48;;;;;;;11.80;8.40;;;15.90;99.90;;;;;;5051571;28;20033;-81
2023/08/26 01:31:14;;;;;;;9.82;8.13;;;15.90;99.90;;;;;;5033685;28;20127;-81
2023/08/26 01:34:10;;;;;;;8.93;8.15;;;15.90;99.90;;;;;;5050842;28;20041;-81
2023/08/26 01:36:42;;;;;;;11.13;7.88;;;15.90;99.90;;;;;;5030020;28;20041;-80
2023/08/26 01:39:10;;;;;;;11.15;8.60;;;15.80;99.90;;;;;;5048318;28;20334;-80
2023/08/26 01:41:38;;;;;;;10.40;7.93;;;15.40;99.90;;;;;;5050397;28;20040;-81
2023/08/26 01:44:05;;;;;;;8.15;7.35;;;15.80;99.90;;;;;;5051765;28;20400;-81
2023/08/26 01:46:37;;;;;;;8.27;7.43;;;15.70;99.90;;;;;;5050806;28;20041;-80
2023/08/26 01:49:03;;;;;;;10.80;7.97;;;15.70;99.90;;;;;;5051582;28;20064;-81
2023/08/26 01:51:30;;;;;;;9.40;8.20;;;15.70;99.90;;;;;;5051021;28;20123;-80
2023/08/26 01:53:56;;;;;;;9.05;7.82;;;15.60;99.90;;;;;;5038136;28;20083;-80
2023/08/26 01:56:21;;;;;;;10.23;7.60;;;15.90;99.90;;;;;;5049497;28;20049;-80
2023/08/26 01:58:47;;;;;;;7.75;7.03;;;15.50;99.90;;;;;;5045520;28;20041;-80
2023/08/26 02:01:13;;;;;;;8.98;7.43;;;15.40;99.90;;;;;;5032562;28;20757;-80
2023/08/26 02:03:38;;;;;;;10.07;7.50;;;15.50;99.90;;;;;;5048977;28;20504;-82
2023/08/26 02:06:04;;;;;;;8.05;6.82;;;15.50;99.90;;;;;;5049541;28;20574;-81
2023/08/26 02:08:30;;;;;;;7.93;7.05;;;15.50;99.90;;;;;;5048939;28;20562;-82
2023/08/26 02:10:58;;;;;;;7.40;6.80;;;15.50;99.90;;;;;;5041204;28;20037;-81
2023/08/26 02:13:24;;;;;;;10.65;6.47;;;15.40;99.90;;;;;;5048888;28;20037;-81
2023/08/26 02:15:51;;;;;;;7.07;6.38;;;15.40;99.90;;;;;;5049670;28;20485;-80
2023/08/26 02:18:17;;;;;;;9.05;6.57;;;15.40;99.90;;;;;;5013433;28;20061;-81
2023/08/26 02:20:43;;;;;;;9.73;7.07;;;15.30;99.90;;;;;;5047380;28;20127;-81
2023/08/26 02:23:11;;;;;;;7.07;6.38;;;15.70;99.90;;;;;;5042091;28;20038;-81
2023/08/26 02:25:41;;;;;;;7.55;6.28;;;15.30;99.90;;;;;;5032995;28;20045;-81
2023/08/26 02:28:07;;;;;;;6.90;6.20;;;15.20;99.90;;;;;;5032377;28;20053;-80
2023/08/26 02:30:33;;;;;;;10.75;6.00;;;15.20;99.90;;;;;;5033307;28;20564;-81
2023/08/26 02:32:59;;;;;;;7.78;5.82;;;15.10;99.90;;;;;;5033729;28;20103;-81
2023/08/26 02:35:25;;;;;;;9.57;6.53;;;15.20;99.90;;;;;;5025852;28;20416;-81
2023/08/26 02:37:51;;;;;;;8.57;6.47;;;15.10;99.90;;;;;;5036175;28;20053;-82
2023/08/26 02:40:17;;;;;;;7.05;6.40;;;15.00;99.90;;;;;;5032731;28;20084;-81
2023/08/26 02:42:43;;;;;;;6.75;6.07;;;15.00;99.90;;;;;;5023296;28;20045;-82
2023/08/26 02:45:09;;;;;;;6.90;6.20;;;15.00;99.90;;;;;;5047318;28;20044;-81
2023/08/26 02:47:35;;;;;;;8.20;6.57;;;14.90;99.90;;;;;;5039164;28;20426;-81
2023/08/26 02:50:01;;;;;;;10.13;6.30;;;14.90;99.90;;;;;;5038340;28;20124;-80
2023/08/26 02:52:27;;;;;;;7.45;6.07;;;14.80;99.90;;;;;;5031988;28;20496;-81
2023/08/26 02:54:53;;;;;;;8.27;6.10;;;14.80;99.90;;;;;;5015121;28;20041;-80
2023/08/26 02:57:19;;;;;;;6.93;6.15;;;14.80;99.90;;;;;;5049264;28;20041;-81
2023/08/26 02:59:45;;;;;;;8.40;6.22;;;14.70;99.90;;;;;;5050089;28;20087;-81
2023/08/26 03:02:11;;;;;;;7.68;6.20;;;15.10;99.90;;;;;;5046354;28;20072;-82
2023/08/26 03:04:36;;;;;;;9.10;5.60;;;14.70;99.90;;;;;;5049701;28;20083;-81
2023/08/26 03:07:02;;;;;;;6.93;6.22;;;14.60;99.90;;;;;;5049494;28;20037;-80
2023/08/26 03:09:29;;;;;;;6.85;5.97;;;14.60;99.90;;;;;;5046943;28;20044;-81
2023/08/26 03:11:55;;;;;;;8.50;6.25;;;15.30;99.90;;;;;;5043605;28;20049;-81
2023/08/26 03:14:21;;;;;;;7.07;5.93;;;14.50;99.90;;;;;;5050264;28;20033;-80
2023/08/26 03:16:47;;;;;;;9.02;5.95;;;14.50;99.90;;;;;;5030358;28;20446;-81
2023/08/26 03:19:12;;;;;;;8.77;6.00;;;14.00;99.90;;;;;;5031271;28;20513;-80
2023/08/26 03:21:38;;;;;;;10.07;6.38;;;15.50;99.90;;;;;;5049730;28;20044;-83
2023/08/26 03:24:05;;;;;;;7.93;6.25;;;14.40;99.90;;;;;;5033926;28;20147;-83
2023/08/26 03:26:30;;;;;;;7.32;5.78;;;14.40;99.90;;;;;;5039371;28;20420;-80
2023/08/26 03:28:56;;;;;;;8.43;5.20;;;14.40;99.90;;;;;;5032708;28;20029;-81
2023/08/26 03:31:22;;;;;;;6.18;5.60;;;14.40;99.90;;;;;;5039825;28;20164;-81
2023/08/26 03:33:47;;;;;;;6.20;5.70;;;14.40;99.90;;;;;;5043445;28;20132;-82
2023/08/26 03:36:13;;;;;;;6.30;5.68;;;14.30;99.90;;;;;;5042512;28;20084;-80
2023/08/26 03:38:38;;;;;;;10.65;6.40;;;14.30;99.90;;;;;;5038666;28;20121;-81
2023/08/26 03:41:05;;;;;;;6.82;6.22;;;14.40;99.90;;;;;;5028019;28;20048;-81
2023/08/26 03:43:31;;;;;;;10.00;5.90;;;14.40;99.90;;;;;;5039265;28;20162;-80
2023/08/26 03:45:57;;;;;;;8.85;5.13;;;14.60;99.90;;;;;;5038236;28;20038;-81
2023/08/26 03:48:23;;;;;;;9.90;5.80;;;14.30;99.90;;;;;;5040375;28;20041;-82
2023/08/26 03:50:57;;;;;;;6.55;5.50;;;14.40;99.90;;;;;;5049310;28;20041;-81
2023/08/26 03:53:23;;;;;;;6.25;5.60;;;14.40;99.90;;;;;;5043522;28;20092;-81
2023/08/26 03:55:49;;;;;;;7.07;6.20;;;14.40;99.90;;;;;;5031116;28;20045;-80
2023/08/26 03:58:14;;;;;;;6.85;6.13;;;14.40;99.90;;;;;;5049638;28;20071;-81
2023/08/26 04:00:40;;;;;;;7.43;6.65;;;14.40;99.90;;;;;;5046607;28;20083;-81
2023/08/26 04:03:07;;;;;;;8.13;6.05;;;14.40;99.90;;;;;;5032271;28;20494;-82
2023/08/26 04:05:33;;;;;;;9.63;6.53;;;14.40;99.90;;;;;;5034010;28;20049;-83
2023/08/26 04:08:00;;;;;;;6.32;5.72;;;14.40;99.90;;;;;;5053499;28;20061;-78
2023/08/26 04:10:26;;;;;;;7.13;6.15;;;14.50;99.90;;;;;;5020181;28;20099;-82
2023/08/26 04:12:51;;;;;;;6.95;5.97;;;14.50;99.90;;;;;;5050513;28;20475;-81
2023/08/26 04:15:17;;;;;;;8.93;6.07;;;15.80;99.90;;;;;;5063760;28;20045;-81
2023/08/26 04:17:43;;;;;;;9.00;5.45;;;14.50;99.90;;;;;;5049484;28;20040;-81
2023/08/26 04:20:11;;;;;;;5.78;5.28;;;14.50;99.90;;;;;;5034797;28;20385;-81
2023/08/26 04:22:37;;;;;;;5.93;5.35;;;14.50;99.90;;;;;;5034178;28;20037;-82
2023/08/26 04:25:06;;;;;;;11.48;6.03;;;14.50;99.90;;;;;;5053336;28;20392;-80
2023/08/26 04:27:34;;;;;;;6.13;5.53;;;14.50;99.90;;;;;;5035090;28;20511;-82
2023/08/26 04:30:03;;;;;;;7.55;5.22;;;14.50;99.90;;;;;;5048586;28;20452;-81
2023/08/26 04:32:29;;;;;;;8.23;4.70;;;14.60;99.90;;;;;;5043112;28;20053;-84
2023/08/26 04:34:55;;;;;;;5.60;5.00;;;14.50;99.90;;;;;;5041479;28;20040;-81
2023/08/26 04:37:22;;;;;;;8.35;5.28;;;14.50;99.90;;;;;;5035918;28;20099;-81
2023/08/26 04:39:48;;;;;;;7.03;4.72;;;14.50;99.90;;;;;;5049768;28;20050;-80
2023/08/26 04:42:14;;;;;;;10.00;5.40;;;14.50;99.90;;;;;;5049242;28;20048;-83
2023/08/26 04:44:40;;;;;;;6.95;4.97;;;14.50;99.90;;;;;;5045427;28;20041;-82
2023/08/26 04:47:07;;;;;;;10.25;5.35;;;14.50;99.90;;;;;;5044072;28;20045;-83
2023/08/26 04:49:32;;;;;;;9.75;4.68;;;14.50;99.90;;;;;;5042228;28;20473;-82
2023/08/26 04:51:59;;;;;;;8.82;4.47;;;15.00;99.90;;;;;;5044578;28;20053;-83
2023/08/26 04:54:24;;;;;;;6.32;4.60;;;15.60;99.90;;;;;;5048223;28;20090;-82
2023/08/26 04:56:50;;;;;;;4.65;4.20;;;14.60;99.90;;;;;;5036502;28;20049;-81
2023/08/26 04:59:16;;;;;;;6.68;4.25;;;14.60;99.90;;;;;;5036585;28;20049;-82
2023/08/26 05:01:42;;;;;;;7.07;4.55;;;14.60;99.90;;;;;;5053279;28;20041;-81
2023/08/26 05:04:08;;;;;;;5.38;4.45;;;14.70;99.90;;;;;;5053687;28;20044;-81
2023/08/26 05:06:34;;;;;;;6.35;4.22;;;14.70;99.90;;;;;;5052317;28;20037;-84
2023/08/26 05:09:01;;;;;;;6.60;4.20;;;14.70;99.90;;;;;;5029852;28;20093;-81
2023/08/26 05:11:27;;;;;;;4.97;3.92;;;14.70;99.90;;;;;;5050504;28;20033;-84
2023/08/26 05:13:52;;;;;;;8.27;4.05;;;15.30;99.90;;;;;;5035827;28;20044;-83
2023/08/26 05:16:18;;;;;;;8.63;4.68;;;14.70;99.90;;;;;;5050918;28;20048;-81
2023/08/26 05:18:44;;;;;;;4.47;3.97;;;15.00;99.90;;;;;;5053003;28;20175;-82
2023/08/26 05:21:10;;;;;;;6.63;4.18;;;14.70;99.90;;;;;;5041381;28;20908;-82
2023/08/26 05:23:36;;;;;;;6.03;4.38;;;14.70;99.90;;;;;;5047143;28;20043;-83
2023/08/26 05:26:02;;;;;;;4.82;4.40;;;14.70;99.90;;;;;;5031988;28;20144;-80
2023/08/26 05:28:27;;;;;;;4.82;4.15;;;14.70;99.90;;;;;;5042424;28;20077;-81
2023/08/26 05:30:53;;;;;;;5.55;4.00;;;15.00;99.90;;;;;;5047639;28;20149;-81
2023/08/26 05:33:18;;;;;;;4.70;3.90;;;15.20;99.90;;;;;;5043566;28;20033;-81
2023/08/26 05:35:44;;;;;;;6.38;4.07;;;15.80;99.90;;;;;;5050800;28;20536;-80
2023/08/26 05:38:11;;;;;;;5.28;4.13;;;14.60;99.90;;;;;;5045684;28;20456;-81
2023/08/26 05:40:36;;;;;;;5.05;3.95;;;14.70;99.90;;;;;;5049926;28;20099;-81
2023/08/26 05:43:02;;;;;;;7.22;4.28;;;14.70;99.90;;;;;;5033622;28;20116;-81
2023/08/26 05:45:28;;;;;;;6.13;4.65;;;14.70;99.90;;;;;;5050766;28;20511;-81
2023/08/26 05:47:54;;;;;;;5.75;4.45;;;14.70;99.90;;;;;;5051351;28;20557;-82
2023/08/26 05:50:20;;;;;;;4.90;4.13;;;14.70;99.90;;;;;;5051905;28;20136;-81
2023/08/26 05:52:45;;;;;;;4.25;3.83;;;14.70;99.90;;;;;;5052059;28;20128;-81
2023/08/26 05:55:11;;;;;;;6.03;3.50;;;14.70;99.90;;;;;;5059594;28;20045;-81
2023/08/26 05:57:38;;;;;;;6.47;3.42;;;14.90;99.90;;;;;;5049461;28;20029;-81
2023/08/26 06:00:06;;;;;;;5.00;3.25;;;14.70;99.90;;;;;;5032467;28;20374;-81
2023/08/26 06:02:32;;;;;;;6.75;4.03;;;14.70;99.90;;;;;;5059420;28;20555;-80
2023/08/26 06:04:59;;;;;;;4.25;3.70;;;14.60;99.90;;;;;;5032224;28;20160;-80
2023/08/26 06:07:24;;;;;;;7.20;3.70;;;14.60;99.90;;;;;;5048324;28;20041;-81
2023/08/26 06:09:50;;;;;;;3.63;3.15;;;14.70;99.90;;;;;;5048047;28;20059;-79
2023/08/26 06:12:15;;;;;;;6.05;3.35;;;14.60;99.90;;;;;;5040823;28;20045;-82
2023/08/26 06:14:41;;;;;;;7.10;3.08;;;13.80;99.90;;;;;;5045753;28;20056;-80
2023/08/26 06:17:07;;;;;;;4.63;2.60;;;14.60;99.90;;;;;;5033276;28;20045;-82
2023/08/26 06:19:32;;;;;;;4.00;2.97;;;14.80;99.90;;;;;;5033457;28;20106;-82
2023/08/26 06:21:58;;;;;;;6.25;2.75;;;14.60;99.90;;;;;;5031256;28;20041;-81
2023/08/26 06:24:25;;;;;;;7.13;3.10;;;14.60;99.90;;;;;;5050355;28;20476;-82
2023/08/26 06:26:51;;;;;;;3.83;2.40;;;14.90;99.90;;;;;;5047479;28;20052;-84
2023/08/26 06:29:19;;;;;;;3.53;2.13;;;14.80;99.90;;;;;;5044936;28;20378;-83
2023/08/26 06:31:45;;;;;;;3.00;2.63;;;14.60;99.90;;;;;;5028663;28;20447;-83
2023/08/26 06:34:11;;;;;;;3.83;2.40;;;15.40;99.90;;;;;;5039441;28;20041;-82
2023/08/26 06:36:36;;;;;;;3.22;2.90;;;14.60;99.90;;;;;;5041310;28;20103;-83
2023/08/26 06:39:03;;;;;;;2.70;2.45;;;14.60;99.90;;;;;;5043123;28;20099;-81
2023/08/26 06:41:32;;;;;;;5.97;2.60;;;14.60;99.90;;;;;;5013972;28;20128;-81
2023/08/26 06:43:58;;;;;;;3.33;2.10;;;14.60;99.90;;;;;;5048193;28;20037;-83
2023/08/26 06:46:23;;;;;;;2.40;2.17;;;14.60;99.90;;;;;;5045706;28;20076;-83
2023/08/26 06:48:52;;;;;;;3.13;2.80;;;14.60;99.90;;;;;;5050170;28;20037;-83
2023/08/26 06:51:18;;;;;;;4.35;2.85;;;14.60;99.90;;;;;;5035833;28;20053;-83
2023/08/26 06:53:44;;;;;;;2.47;2.28;;;14.70;99.90;;;;;;4346186;28;10000639;-83
2023/08/26 06:56:10;;;;;;;6.32;4.28;;;14.60;99.90;;;;;;5043651;28;20045;-84
2023/08/26 06:58:36;;;;;;;6.93;5.40;;;14.70;99.90;;;;;;5048569;28;20072;-83
2023/08/26 07:01:03;;;;;;;17.73;13.50;;;14.80;99.90;;;;;;5026115;28;20076;-84
2023/08/26 07:03:28;;;;;;;5.30;2.90;;;14.70;99.90;;;;;;5041820;28;20439;-83
2023/08/26 07:05:54;;;;;;;3.25;2.95;;;14.70;99.90;;;;;;5045918;28;20246;-82
2023/08/26 07:08:23;;;;;;;3.67;2.75;;;14.70;99.90;;;;;;5033497;28;20045;-84
2023/08/26 07:10:49;;;;;;;3.78;2.88;;;14.70;99.90;;;;;;5050130;28;20066;-83
2023/08/26 07:13:16;;;;;;;7.40;3.05;;;14.80;99.90;;;;;;5031634;28;20128;-82
2023/08/26 07:15:45;;;;;;;4.20;3.78;;;14.80;99.90;;;;;;5050886;28;20033;-83
2023/08/26 07:18:10;;;;;;;8.85;5.40;;;14.80;99.90;;;;;;5045637;28;20071;-83
2023/08/26 07:20:36;;;;;;;9.02;8.10;;;14.90;99.90;;;;;;5031632;28;20045;-84
2023/08/26 07:23:02;;;;;;;13.93;10.60;;;15.20;99.90;;;;;;5042931;28;20037;-83
2023/08/26 07:25:28;;;;;;;14.90;10.98;;;15.00;99.90;;;;;;5039613;28;20064;-84
2023/08/26 07:27:53;;;;;;;16.38;12.40;;;15.10;99.90;;;;;;5039147;28;20126;-81
2023/08/26 07:30:19;;;;;;;21.30;13.80;;;15.10;99.90;;;;;;5026496;28;20052;-87
2023/08/26 07:32:45;;;;;;;22.25;14.73;;;15.20;99.90;;;;;;5029650;28;20064;-87
2023/08/26 07:35:11;;;;;;;19.88;14.60;;;15.30;99.90;;;;;;5051284;28;20132;-84
2023/08/26 07:37:37;;;;;;;17.98;15.85;;;15.40;99.90;;;;;;5047062;28;20037;-84
2023/08/26 07:40:08;;;;;;;22.08;16.00;;;15.40;99.90;;;;;;5046646;28;20048;-86
2023/08/26 07:42:36;;;;;;;25.92;17.27;;;15.50;99.90;;;;;;5047115;28;20037;-85
2023/08/26 07:45:02;;;;;;;21.35;16.27;;;15.60;99.90;;;;;;5045191;28;20484;-85
2023/08/26 07:47:30;;;;;;;23.27;16.73;;;15.60;99.90;;;;;;5044860;28;20409;-84
2023/08/26 07:49:56;;;;;;;21.40;16.92;;;15.60;99.90;;;;;;5026554;28;20041;-84
2023/08/26 07:52:22;;;;;;;20.67;17.08;;;15.60;99.90;;;;;;5026765;28;20393;-83
2023/08/26 07:54:47;;;;;;;21.20;16.75;;;15.70;99.90;;;;;;5043518;28;20069;-83
2023/08/26 07:57:13;;;;;;;21.63;17.38;;;15.70;99.90;;;;;;5045908;28;20051;-86
2023/08/26 07:59:39;;;;;;;25.17;17.08;;;15.50;99.90;;;;;;5026420;28;20031;-84
2023/08/26 08:02:05;;;;;;;21.55;16.30;;;15.70;99.90;;;;;;5027436;28;20059;-83
2023/08/26 08:04:31;;;;;;;19.13;16.42;;;15.80;99.90;;;;;;5046480;28;20064;-83
2023/08/26 08:06:58;;;;;;;18.05;15.45;;;15.80;99.90;;;;;;5045295;28;20041;-84
2023/08/26 08:09:23;;;;;;;18.15;15.70;;;15.80;99.90;;;;;;5045286;28;20597;-84
2023/08/26 08:11:49;;;;;;;16.40;14.80;;;15.90;99.90;;;;;;5044724;28;20095;-86
2023/08/26 08:14:15;;;;;;;19.23;15.77;;;16.00;99.90;;;;;;5044573;28;20489;-84
2023/08/26 08:16:40;;;;;;;17.63;13.77;;;16.00;99.90;;;;;;5045340;28;20067;-83
2023/08/26 08:19:06;;;;;;;16.33;14.70;;;16.00;99.90;;;;;;5025358;28;20454;-85
2023/08/26 08:21:32;;;;;;;19.75;14.88;;;16.10;99.90;;;;;;5044960;28;20049;-84
2023/08/26 08:23:57;;;;;;;20.90;14.25;;;16.10;99.90;;;;;;5048883;28;20068;-85
2023/08/26 08:26:23;;;;;;;15.27;13.50;;;16.20;99.90;;;;;;5044434;28;20048;-86
2023/08/26 08:28:49;;;;;;;16.55;13.02;;;16.20;99.90;;;;;;5032642;28;20044;-86
2023/08/26 08:31:14;;;;;;;16.63;13.05;;;16.30;99.90;;;;;;5041768;28;20409;-83
2023/08/26 08:33:40;;;;;;;19.48;12.13;;;16.30;99.90;;;;;;5042238;28;20048;-83
2023/08/26 08:36:06;;;;;;;14.88;12.88;;;16.20;99.90;;;;;;5045296;28;20053;-85
2023/08/26 08:38:31;;;;;;;15.73;12.80;;;16.30;99.90;;;;;;5044877;28;20080;-82
2023/08/26 08:40:58;;;;;;;13.13;11.80;;;16.30;99.90;;;;;;5044269;28;20033;-84
2023/08/26 08:43:29;;;;;;;13.68;11.85;;;16.30;99.90;;;;;;5044799;28;20037;-86
2023/08/26 08:45:56;;;;;;;15.48;12.63;;;16.30;99.90;;;;;;5044434;28;20072;-84
2023/08/26 08:48:23;;;;;;;16.60;12.73;;;16.30;99.90;;;;;;5044771;28;20037;-84
2023/08/26 08:50:49;;;;;;;15.10;12.27;;;16.30;99.90;;;;;;5040657;28;20045;-85
2023/08/26 08:53:25;;;;;;;14.70;13.30;;;16.40;99.90;;;;;;5041620;28;20069;-86
2023/08/26 08:55:51;;;;;;;14.23;12.68;;;16.40;99.90;;;;;;5049638;28;20040;-86
2023/08/26 08:58:17;;;;;;;13.80;11.77;;;16.40;99.90;;;;;;5050951;28;20037;-83
2023/08/26 09:00:44;;;;;;;12.98;11.63;;;16.40;99.90;;;;;;5052515;28;20037;-83
2023/08/26 09:03:10;;;;;;;17.48;13.15;;;16.50;99.90;;;;;;5045681;28;20121;-86
2023/08/26 09:05:36;;;;;;;15.30;13.32;;;16.60;99.90;;;;;;5035329;28;20069;-85
2023/08/26 09:08:04;;;;;;;16.30;12.30;;;16.70;99.90;;;;;;5046081;28;20099;-85
2023/08/26 09:10:30;;;;;;;16.50;12.38;;;16.70;99.90;;;;;;5035743;28;20051;-83
2023/08/26 09:12:56;;;;;;;14.65;11.80;;;16.70;99.90;;;;;;5052363;28;20462;-85
2023/08/26 09:15:22;;;;;;;16.88;12.45;;;16.70;99.90;;;;;;5052870;28;20559;-83
2023/08/26 09:17:47;;;;;;;16.77;12.68;;;16.80;99.90;;;;;;5053412;28;20045;-85
2023/08/26 09:20:13;;;;;;;13.70;12.48;;;16.90;99.90;;;;;;5048145;28;20055;-84
2023/08/26 09:22:39;;;;;;;14.10;11.40;;;16.90;99.90;;;;;;5035557;28;20404;-86
2023/08/26 09:25:05;;;;;;;15.13;11.38;;;17.50;99.90;;;;;;5035688;28;20052;-87
2023/08/26 09:27:40;;;;;;;12.32;11.00;;;17.00;99.90;;;;;;5045123;28;20032;-85
2023/08/26 09:30:07;;;;;;;14.40;10.98;;;17.00;99.90;;;;;;5026375;28;20064;-83
2023/08/26 09:32:37;;;;;;;15.23;10.30;;;17.10;99.90;;;;;;5054835;28;20102;-83
2023/08/26 09:35:17;;;;;;;11.57;9.95;;;17.10;99.90;;;;;;5050387;28;20116;-82
2023/08/26 09:37:47;;;;;;;13.05;10.02;;;17.20;99.90;;;;;;5034513;28;20050;-83
2023/08/26 09:40:14;;;;;;;10.98;9.52;;;17.20;99.90;;;;;;5035751;28;20060;-83
2023/08/26 09:42:41;;;;;;;11.57;8.90;;;17.30;99.90;;;;;;5046224;28;20099;-84
2023/08/26 09:45:13;;;;;;;10.55;8.25;;;17.30;99.90;;;;;;5042856;28;20041;-84
2023/08/26 09:47:46;;;;;;;14.18;9.85;;;17.40;99.90;;;;;;5034787;28;20056;-84
2023/08/26 09:50:12;;;;;;;15.45;9.00;;;17.40;99.90;;;;;;5052217;28;20045;-86
2023/08/26 09:52:48;;;;;;;12.77;9.23;;;18.30;99.90;;;;;;5039132;28;20049;-85
2023/08/26 09:55:14;;;;;;;10.82;9.07;;;17.30;99.90;;;;;;5035061;28;20055;-86
2023/08/26 09:57:41;;;;;;;13.45;9.15;;;17.30;99.90;;;;;;5043775;28;20075;-84
2023/08/26 10:00:10;;;;;;;14.27;10.57;;;17.60;99.90;;;;;;5047568;28;20493;-86
2023/08/26 10:02:38;;;;;;;12.15;10.38;;;17.40;99.90;;;;;;5050185;28;20108;-84
2023/08/26 10:05:11;;;;;;;9.00;7.63;;;17.40;99.90;;;;;;5046332;28;20038;-85
2023/08/26 10:07:38;;;;;;;5.55;2.83;;;17.40;99.90;;;;;;5021339;28;20175;-84
2023/08/26 10:10:24;;;;;;;5.13;1.60;;;17.50;99.90;;;;;;5051160;28;20082;-87
2023/08/26 10:12:55;;;;;;;9.35;2.50;;;16.70;99.90;;;;;;5048197;28;20044;-87
2023/08/26 10:15:26;;;;;;;14.82;2.88;;;16.30;99.90;;;;;;5039534;28;20081;-85
2023/08/26 10:17:55;;;;;;;8.18;1.75;;;15.80;99.90;;;;;;5055690;28;20047;-85
2023/08/26 10:20:22;;;;;;;11.80;2.42;;;15.50;99.90;;;;;;5034548;28;20057;-84
2023/08/26 10:22:47;;;;;;;5.45;1.80;;;15.40;99.90;;;;;;5050223;28;20102;-85
2023/08/26 10:25:15;;;;;;;6.32;1.85;;;15.60;99.90;;;;;;5035235;28;20451;-86
2023/08/26 10:27:41;;;;;;;3.15;1.70;;;15.20;99.90;;;;;;5028676;28;20041;-88
2023/08/26 10:30:10;;;;;;;5.75;2.08;;;15.20;99.90;;;;;;5042488;28;20065;-86
2023/08/26 10:32:43;;;;;;;9.13;1.75;;;15.10;99.90;;;;;;5042029;28;20043;-87
2023/08/26 10:35:13;;;;;;;3.15;0.93;;;16.00;99.90;;;;;;5036317;28;20040;-88
2023/08/26 10:37:43;;;;;;;2.35;1.20;;;15.90;99.90;;;;;;5052394;28;20045;-86
2023/08/26 10:40:12;;;;;;;2.25;0.90;;;14.30;99.90;;;;;;5042390;28;20135;-86
2023/08/26 10:42:38;;;;;;;2.33;0.93;;;15.00;99.90;;;;;;5048384;28;20033;-85
2023/08/26 10:45:14;;;;;;;3.50;1.17;;;15.00;99.90;;;;;;5049408;28;20558;-86
2023/08/26 10:47:50;;;;;;;3.85;0.63;;;15.00;99.90;;;;;;5052786;28;20557;-84
2023/08/26 10:50:25;;;;;;;1.83;0.88;;;15.10;99.90;;;;;;5049971;28;20041;-86
2023/08/26 10:53:23;;;;;;;4.70;3.33;;;15.20;99.90;;;;;;5054781;28;20041;-84
2023/08/26 10:55:54;;;;;;;2.25;1.50;;;15.60;99.90;;;;;;5034082;28;20053;-85
2023/08/26 10:58:40;;;;;;;1.55;0.90;;;15.30;99.90;;;;;;5032387;28;20044;-81
2023/08/26 11:01:06;;;;;;;3.65;1.73;;;16.50;99.90;;;;;;5038659;28;20087;-81
2023/08/26 11:03:37;;;;;;;3.25;1.23;;;15.40;99.90;;;;;;5045643;28;20397;-82
2023/08/26 11:06:09;;;;;;;2.08;1.70;;;15.50;99.90;;;;;;5042774;28;20405;-83
2023/08/26 11:08:40;;;;;;;2.55;2.00;;;15.60;99.90;;;;;;5038794;28;20067;-81
2023/08/26 11:11:11;;;;;;;2.63;2.42;;;16.50;99.90;;;;;;5044958;28;20405;-82
2023/08/26 11:14:03;;;;;;;3.97;3.10;;;15.80;99.90;;;;;;5043760;28;20045;-82
2023/08/26 11:16:33;;;;;;;4.47;4.07;;;15.90;99.90;;;;;;5041176;28;20053;-84
2023/08/26 11:18:59;;;;;;;6.38;5.35;;;17.30;99.90;;;;;;5046212;28;20045;-83
2023/08/26 11:21:26;;;;;;;9.07;6.32;;;16.30;99.90;;;;;;5027666;28;20077;-84
2023/08/26 11:23:54;;;;;;;9.40;6.22;;;16.50;99.90;;;;;;5052634;28;20041;-84
2023/08/26 11:26:20;;;;;;;6.82;6.13;;;16.70;99.90;;;;;;5036696;28;20049;-83
2023/08/26 11:28:49;;;;;;;12.02;6.88;;;16.90;99.90;;;;;;5046465;28;20457;-83
2023/08/26 11:31:16;;;;;;;9.80;7.57;;;17.10;99.90;;;;;;5042087;28;20050;-84
2023/08/26 11:33:41;;;;;;;9.27;7.63;;;17.20;99.90;;;;;;5036042;28;20049;-83
2023/08/26 11:36:07;;;;;;;12.05;8.15;;;17.50;99.90;;;;;;5042014;28;20055;-81
2023/08/26 11:38:36;;;;;;;14.25;7.85;;;17.30;99.90;;;;;;5047339;28;20114;-81
2023/08/26 11:41:06;;;;;;;11.02;7.40;;;17.30;99.90;;;;;;5051124;28;20060;-82
2023/08/26 11:43:34;;;;;;;12.82;8.82;;;17.20;99.90;;;;;;5044846;28;20089;-82
2023/08/26 11:46:00;;;;;;;9.82;8.23;;;17.20;99.90;;;;;;5042854;28;20168;-82
2023/08/26 11:48:27;;;;;;;11.93;8.73;;;17.10;99.90;;;;;;5035080;28;20112;-83
2023/08/26 11:51:00;;;;;;;11.57;8.45;;;17.10;99.90;;;;;;5052471;28;20159;-84
2023/08/26 11:53:26;;;;;;;11.07;7.78;;;17.00;99.90;;;;;;5048319;28;20124;-84
2023/08/26 11:55:52;;;;;;;11.05;8.95;;;16.90;99.90;;;;;;5018156;28;20442;-83
2023/08/26 11:58:18;;;;;;;11.02;7.68;;;16.90;99.90;;;;;;5053489;28;20045;-83
2023/08/26 12:00:44;;;;;;;9.05;7.57;;;16.90;99.90;;;;;;5052702;28;20416;-83
2023/08/26 12:03:11;;;;;;;9.38;8.48;;;17.00;99.90;;;;;;5042585;28;20108;-83
2023/08/26 12:05:46;;;;;;;8.80;5.32;;;17.10;99.90;;;;;;5033814;28;20045;-83
2023/08/26 12:08:19;;;;;;;6.07;5.35;;;17.40;99.90;;;;;;5039002;28;20045;-83
2023/08/26 12:10:50;;;;;;;6.78;4.93;;;17.60;99.90;;;;;;5044803;28;20393;-82
2023/08/26 12:13:16;;;;;;;4.97;4.47;;;17.80;99.90;;;;;;5018857;28;20077;-83
2023/08/26 12:15:45;;;;;;;4.47;3.92;;;18.00;99.90;;;;;;5045086;28;20098;-88
2023/08/26 12:18:12;;;;;;;6.80;4.30;;;18.00;99.90;;;;;;5045392;28;20471;-80
2023/08/26 12:20:40;;;;;;;5.70;3.63;;;18.10;99.90;;;;;;5034558;28;20049;-81
2023/08/26 12:23:09;;;;;;;2.53;2.30;;;18.20;99.90;;;;;;5047929;28;20552;-79
2023/08/26 12:25:38;;;;;;;3.38;2.42;;;18.40;99.90;;;;;;5011966;28;20492;-82
2023/08/26 12:28:18;;;;;;;5.78;1.40;;;18.50;99.90;;;;;;5051369;28;20084;-81
2023/08/26 12:30:47;;;;;;;3.13;1.33;;;18.70;99.90;;;;;;5060607;28;20386;-81
2023/08/26 12:33:14;;;;;;;5.07;1.10;;;18.80;99.90;;;;;;5042616;28;20489;-81
2023/08/26 12:35:40;;;;;;;1.50;1.40;;;18.90;99.90;;;;;;5043444;28;20037;-82
2023/08/26 12:38:06;;;;;;;2.17;0.40;;;18.90;99.90;;;;;;5039306;28;20449;-83
2023/08/26 12:40:34;;;;;;;3.78;0.73;;;18.90;99.90;;;;;;5035632;28;20057;-80